sensor_id;sensor_type;location;lat;lon;timestamp;P1;durP1;ratioP1;P2;durP2;ratioP2
72325;SDS011;60278;47.980;18.780;2022-09-09T00:00:13;1.45;;;0.80;;
72325;SDS011;60278;47.980;18.780;2022-09-09T00:03:48;1.65;;;0.80;;
72325;SDS011;60278;47.980;18.780;2022-09-09T00:07:38;2.70;;;0.90;;
72325;SDS011;60278;47.980;18.780;2022-09-09T00:11:21;1.70;;;0.80;;
72325;SDS011;60278;47.980;18.780;2022-09-09T00:15:00;3.50;;;1.00;;
72325;SDS011;60278;47.980;18.780;2022-09-09T00:22:20;1.98;;;1.08;;
72325;SDS011;60278;47.980;18.780;2022-09-09T00:33:13;1.65;;;0.80;;
72325;SDS011;60278;47.980;18.780;2022-09-09T00:36:47;1.83;;;1.05;;
72325;SDS011;60278;47.980;18.780;2022-09-09T00:40:23;4.32;;;1.10;;
72325;SDS011;60278;47.980;18.780;2022-09-09T00:44:06;3.53;;;0.90;;
72325;SDS011;60278;47.980;18.780;2022-09-09T00:47:44;2.08;;;1.00;;
72325;SDS011;60278;47.980;18.780;2022-09-09T00:51:24;1.73;;;0.75;;
72325;SDS011;60278;47.980;18.780;2022-09-09T00:59:35;1.58;;;0.82;;
72325;SDS011;60278;47.980;18.780;2022-09-09T01:07:24;2.00;;;0.90;;
72325;SDS011;60278;47.980;18.780;2022-09-09T01:10:55;2.20;;;0.90;;
72325;SDS011;60278;47.980;18.780;2022-09-09T01:14:37;2.17;;;1.00;;
72325;SDS011;60278;47.980;18.780;2022-09-09T01:18:13;2.55;;;0.90;;
72325;SDS011;60278;47.980;18.780;2022-09-09T01:21:56;1.93;;;0.90;;
72325;SDS011;60278;47.980;18.780;2022-09-09T01:29:40;1.92;;;1.00;;
72325;SDS011;60278;47.980;18.780;2022-09-09T01:33:15;2.87;;;0.90;;
72325;SDS011;60278;47.980;18.780;2022-09-09T01:40:36;1.67;;;0.80;;
72325;SDS011;60278;47.980;18.780;2022-09-09T01:44:08;2.73;;;1.07;;
72325;SDS011;60278;47.980;18.780;2022-09-09T01:47:42;1.98;;;0.80;;
72325;SDS011;60278;47.980;18.780;2022-09-09T01:51:22;3.38;;;0.90;;
72325;SDS011;60278;47.980;18.780;2022-09-09T01:54:54;2.67;;;1.00;;
72325;SDS011;60278;47.980;18.780;2022-09-09T02:02:39;2.10;;;0.70;;
72325;SDS011;60278;47.980;18.780;2022-09-09T02:09:58;1.90;;;0.93;;
72325;SDS011;60278;47.980;18.780;2022-09-09T02:13:37;1.65;;;0.90;;
72325;SDS011;60278;47.980;18.780;2022-09-09T02:17:13;2.08;;;0.90;;
72325;SDS011;60278;47.980;18.780;2022-09-09T02:21:04;2.10;;;1.00;;
72325;SDS011;60278;47.980;18.780;2022-09-09T02:24:38;1.67;;;0.95;;
72325;SDS011;60278;47.980;18.780;2022-09-09T02:28:21;1.98;;;1.00;;
72325;SDS011;60278;47.980;18.780;2022-09-09T02:31:57;1.70;;;0.95;;
72325;SDS011;60278;47.980;18.780;2022-09-09T02:35:37;1.90;;;0.90;;
72325;SDS011;60278;47.980;18.780;2022-09-09T02:39:09;2.03;;;1.00;;
72325;SDS011;60278;47.980;18.780;2022-09-09T02:42:45;2.17;;;1.00;;
72325;SDS011;60278;47.980;18.780;2022-09-09T02:57:27;2.13;;;1.20;;
72325;SDS011;60278;47.980;18.780;2022-09-09T03:01:01;2.03;;;0.90;;
72325;SDS011;60278;47.980;18.780;2022-09-09T03:04:34;5.88;;;1.05;;
72325;SDS011;60278;47.980;18.780;2022-09-09T03:08:06;4.38;;;1.20;;
72325;SDS011;60278;47.980;18.780;2022-09-09T03:11:37;2.30;;;1.10;;
72325;SDS011;60278;47.980;18.780;2022-09-09T03:15:09;2.13;;;1.00;;
72325;SDS011;60278;47.980;18.780;2022-09-09T03:18:42;2.15;;;1.20;;
72325;SDS011;60278;47.980;18.780;2022-09-09T03:22:16;3.97;;;1.20;;
72325;SDS011;60278;47.980;18.780;2022-09-09T03:25:49;2.08;;;1.08;;
72325;SDS011;60278;47.980;18.780;2022-09-09T03:29:23;2.22;;;1.05;;
72325;SDS011;60278;47.980;18.780;2022-09-09T03:32:57;2.00;;;1.00;;
72325;SDS011;60278;47.980;18.780;2022-09-09T03:36:32;2.58;;;1.40;;
72325;SDS011;60278;47.980;18.780;2022-09-09T03:40:04;2.35;;;1.10;;
72325;SDS011;60278;47.980;18.780;2022-09-09T03:43:36;2.97;;;1.40;;
72325;SDS011;60278;47.980;18.780;2022-09-09T03:47:09;3.40;;;1.10;;
72325;SDS011;60278;47.980;18.780;2022-09-09T03:50:47;2.30;;;1.20;;
72325;SDS011;60278;47.980;18.780;2022-09-09T03:54:19;2.70;;;1.27;;
72325;SDS011;60278;47.980;18.780;2022-09-09T03:57:50;2.47;;;1.27;;
72325;SDS011;60278;47.980;18.780;2022-09-09T04:01:22;2.17;;;1.23;;
72325;SDS011;60278;47.980;18.780;2022-09-09T04:04:54;2.40;;;1.27;;
72325;SDS011;60278;47.980;18.780;2022-09-09T04:08:25;2.53;;;1.00;;
72325;SDS011;60278;47.980;18.780;2022-09-09T04:11:56;1.67;;;0.82;;
72325;SDS011;60278;47.980;18.780;2022-09-09T04:15:27;2.05;;;1.08;;
72325;SDS011;60278;47.980;18.780;2022-09-09T04:18:59;2.75;;;1.25;;
72325;SDS011;60278;47.980;18.780;2022-09-09T04:22:32;2.77;;;1.20;;
72325;SDS011;60278;47.980;18.780;2022-09-09T04:26:04;4.97;;;1.40;;
72325;SDS011;60278;47.980;18.780;2022-09-09T04:29:37;3.45;;;1.15;;
72325;SDS011;60278;47.980;18.780;2022-09-09T04:33:09;2.57;;;1.30;;
72325;SDS011;60278;47.980;18.780;2022-09-09T04:36:41;3.03;;;1.40;;
72325;SDS011;60278;47.980;18.780;2022-09-09T04:40:13;2.60;;;1.38;;
72325;SDS011;60278;47.980;18.780;2022-09-09T04:43:45;3.20;;;1.30;;
72325;SDS011;60278;47.980;18.780;2022-09-09T04:47:18;3.20;;;1.70;;
72325;SDS011;60278;47.980;18.780;2022-09-09T04:50:59;2.38;;;1.40;;
72325;SDS011;60278;47.980;18.780;2022-09-09T04:54:30;2.65;;;1.40;;
72325;SDS011;60278;47.980;18.780;2022-09-09T04:58:03;3.97;;;1.37;;
72325;SDS011;60278;47.980;18.780;2022-09-09T05:01:36;2.25;;;1.27;;
72325;SDS011;60278;47.980;18.780;2022-09-09T05:05:09;2.88;;;1.30;;
72325;SDS011;60278;47.980;18.780;2022-09-09T05:08:42;2.60;;;1.30;;
72325;SDS011;60278;47.980;18.780;2022-09-09T05:12:15;2.92;;;1.20;;
72325;SDS011;60278;47.980;18.780;2022-09-09T05:15:54;3.13;;;1.40;;
72325;SDS011;60278;47.980;18.780;2022-09-09T05:19:26;3.10;;;1.40;;
72325;SDS011;60278;47.980;18.780;2022-09-09T05:22:58;3.78;;;1.73;;
72325;SDS011;60278;47.980;18.780;2022-09-09T05:26:32;8.23;;;1.98;;
72325;SDS011;60278;47.980;18.780;2022-09-09T05:30:06;3.15;;;1.60;;
72325;SDS011;60278;47.980;18.780;2022-09-09T05:33:39;7.30;;;1.53;;
72325;SDS011;60278;47.980;18.780;2022-09-09T05:37:11;2.30;;;1.30;;
72325;SDS011;60278;47.980;18.780;2022-09-09T05:40:48;2.72;;;1.40;;
72325;SDS011;60278;47.980;18.780;2022-09-09T05:44:21;2.93;;;1.20;;
72325;SDS011;60278;47.980;18.780;2022-09-09T05:47:54;2.55;;;1.20;;
72325;SDS011;60278;47.980;18.780;2022-09-09T05:51:26;2.80;;;1.30;;
72325;SDS011;60278;47.980;18.780;2022-09-09T05:55:02;4.30;;;1.50;;
72325;SDS011;60278;47.980;18.780;2022-09-09T05:58:35;2.20;;;1.10;;
72325;SDS011;60278;47.980;18.780;2022-09-09T06:02:09;5.40;;;1.30;;
72325;SDS011;60278;47.980;18.780;2022-09-09T06:05:41;3.78;;;1.40;;
72325;SDS011;60278;47.980;18.780;2022-09-09T06:09:12;3.00;;;1.50;;
72325;SDS011;60278;47.980;18.780;2022-09-09T06:12:46;3.33;;;1.33;;
72325;SDS011;60278;47.980;18.780;2022-09-09T06:16:18;3.08;;;1.40;;
72325;SDS011;60278;47.980;18.780;2022-09-09T06:19:50;4.20;;;1.87;;
72325;SDS011;60278;47.980;18.780;2022-09-09T06:23:24;2.90;;;1.50;;
72325;SDS011;60278;47.980;18.780;2022-09-09T06:26:56;3.10;;;1.50;;
72325;SDS011;60278;47.980;18.780;2022-09-09T06:30:31;3.93;;;1.70;;
72325;SDS011;60278;47.980;18.780;2022-09-09T06:34:06;4.25;;;1.90;;
72325;SDS011;60278;47.980;18.780;2022-09-09T06:37:39;4.45;;;1.85;;
72325;SDS011;60278;47.980;18.780;2022-09-09T06:41:11;3.65;;;2.05;;
72325;SDS011;60278;47.980;18.780;2022-09-09T06:44:44;3.33;;;2.03;;
72325;SDS011;60278;47.980;18.780;2022-09-09T06:48:22;3.88;;;2.40;;
72325;SDS011;60278;47.980;18.780;2022-09-09T06:51:54;4.28;;;2.38;;
72325;SDS011;60278;47.980;18.780;2022-09-09T06:55:25;3.40;;;2.00;;
72325;SDS011;60278;47.980;18.780;2022-09-09T06:58:57;3.40;;;2.08;;
72325;SDS011;60278;47.980;18.780;2022-09-09T07:02:34;4.47;;;1.80;;
72325;SDS011;60278;47.980;18.780;2022-09-09T07:06:20;8.33;;;2.10;;
72325;SDS011;60278;47.980;18.780;2022-09-09T07:09:55;3.20;;;1.98;;
72325;SDS011;60278;47.980;18.780;2022-09-09T07:13:26;3.15;;;1.88;;
72325;SDS011;60278;47.980;18.780;2022-09-09T07:16:59;5.40;;;1.95;;
72325;SDS011;60278;47.980;18.780;2022-09-09T07:20:34;3.07;;;2.10;;
72325;SDS011;60278;47.980;18.780;2022-09-09T07:24:05;3.40;;;2.40;;
72325;SDS011;60278;47.980;18.780;2022-09-09T07:27:38;3.63;;;2.40;;
72325;SDS011;60278;47.980;18.780;2022-09-09T07:31:26;2.73;;;2.03;;
72325;SDS011;60278;47.980;18.780;2022-09-09T07:35:02;2.27;;;1.37;;
72325;SDS011;60278;47.980;18.780;2022-09-09T07:38:40;2.47;;;1.48;;
72325;SDS011;60278;47.980;18.780;2022-09-09T07:42:14;4.80;;;1.70;;
72325;SDS011;60278;47.980;18.780;2022-09-09T07:45:45;3.87;;;2.30;;
72325;SDS011;60278;47.980;18.780;2022-09-09T07:49:18;2.83;;;1.40;;
72325;SDS011;60278;47.980;18.780;2022-09-09T07:52:52;2.70;;;1.30;;
72325;SDS011;60278;47.980;18.780;2022-09-09T07:56:25;2.90;;;1.10;;
72325;SDS011;60278;47.980;18.780;2022-09-09T07:59:57;4.00;;;1.40;;
72325;SDS011;60278;47.980;18.780;2022-09-09T08:03:29;2.70;;;1.50;;
72325;SDS011;60278;47.980;18.780;2022-09-09T08:07:01;2.80;;;1.35;;
72325;SDS011;60278;47.980;18.780;2022-09-09T08:10:37;2.80;;;1.30;;
72325;SDS011;60278;47.980;18.780;2022-09-09T08:14:09;3.63;;;1.50;;
72325;SDS011;60278;47.980;18.780;2022-09-09T08:17:42;2.37;;;1.07;;
72325;SDS011;60278;47.980;18.780;2022-09-09T08:21:14;2.03;;;1.08;;
72325;SDS011;60278;47.980;18.780;2022-09-09T08:24:48;2.28;;;1.13;;
72325;SDS011;60278;47.980;18.780;2022-09-09T08:28:19;4.10;;;1.10;;
72325;SDS011;60278;47.980;18.780;2022-09-09T08:31:54;2.92;;;1.20;;
72325;SDS011;60278;47.980;18.780;2022-09-09T08:35:28;3.55;;;0.90;;
72325;SDS011;60278;47.980;18.780;2022-09-09T08:39:04;2.10;;;1.00;;
72325;SDS011;60278;47.980;18.780;2022-09-09T08:42:38;3.00;;;1.30;;
72325;SDS011;60278;47.980;18.780;2022-09-09T08:46:22;2.50;;;1.20;;
72325;SDS011;60278;47.980;18.780;2022-09-09T08:50:05;2.63;;;1.20;;
72325;SDS011;60278;47.980;18.780;2022-09-09T08:53:57;3.23;;;1.10;;
72325;SDS011;60278;47.980;18.780;2022-09-09T08:57:31;4.47;;;1.40;;
72325;SDS011;60278;47.980;18.780;2022-09-09T09:01:19;2.15;;;0.93;;
72325;SDS011;60278;47.980;18.780;2022-09-09T09:05:31;2.50;;;1.07;;
72325;SDS011;60278;47.980;18.780;2022-09-09T09:12:53;2.60;;;1.10;;
72325;SDS011;60278;47.980;18.780;2022-09-09T09:16:29;2.05;;;1.00;;
72325;SDS011;60278;47.980;18.780;2022-09-09T09:20:11;2.30;;;1.00;;
72325;SDS011;60278;47.980;18.780;2022-09-09T09:23:48;2.10;;;1.05;;
72325;SDS011;60278;47.980;18.780;2022-09-09T09:31:12;3.70;;;1.00;;
72325;SDS011;60278;47.980;18.780;2022-09-09T09:34:54;6.43;;;1.13;;
72325;SDS011;60278;47.980;18.780;2022-09-09T09:38:27;2.80;;;0.90;;
72325;SDS011;60278;47.980;18.780;2022-09-09T09:42:09;4.33;;;1.20;;
72325;SDS011;60278;47.980;18.780;2022-09-09T09:45:45;2.08;;;1.10;;
72325;SDS011;60278;47.980;18.780;2022-09-09T09:49:17;2.17;;;1.10;;
72325;SDS011;60278;47.980;18.780;2022-09-09T09:53:04;2.20;;;0.98;;
72325;SDS011;60278;47.980;18.780;2022-09-09T09:56:41;1.60;;;0.80;;
72325;SDS011;60278;47.980;18.780;2022-09-09T10:00:15;2.83;;;1.45;;
72325;SDS011;60278;47.980;18.780;2022-09-09T10:04:00;2.22;;;1.02;;
72325;SDS011;60278;47.980;18.780;2022-09-09T10:07:34;3.67;;;0.97;;
72325;SDS011;60278;47.980;18.780;2022-09-09T10:15:13;4.22;;;1.00;;
72325;SDS011;60278;47.980;18.780;2022-09-09T10:19:05;3.00;;;1.13;;
72325;SDS011;60278;47.980;18.780;2022-09-09T10:22:44;2.50;;;1.13;;
72325;SDS011;60278;47.980;18.780;2022-09-09T10:45:32;2.80;;;1.77;;
72325;SDS011;60278;47.980;18.780;2022-09-09T10:57:13;12.02;;;2.25;;
72325;SDS011;60278;47.980;18.780;2022-09-09T11:01:10;32.20;;;3.00;;
72325;SDS011;60278;47.980;18.780;2022-09-09T11:05:08;2.97;;;1.50;;
72325;SDS011;60278;47.980;18.780;2022-09-09T11:08:45;2.72;;;1.30;;
72325;SDS011;60278;47.980;18.780;2022-09-09T11:12:18;2.00;;;1.23;;
72325;SDS011;60278;47.980;18.780;2022-09-09T11:15:52;5.38;;;1.45;;
72325;SDS011;60278;47.980;18.780;2022-09-09T11:23:15;2.20;;;0.80;;
72325;SDS011;60278;47.980;18.780;2022-09-09T11:26:54;3.83;;;1.00;;
72325;SDS011;60278;47.980;18.780;2022-09-09T11:41:40;1.75;;;0.90;;
72325;SDS011;60278;47.980;18.780;2022-09-09T11:45:26;3.47;;;1.00;;
72325;SDS011;60278;47.980;18.780;2022-09-09T11:49:00;8.63;;;1.60;;
72325;SDS011;60278;47.980;18.780;2022-09-09T11:52:37;1.88;;;0.98;;
72325;SDS011;60278;47.980;18.780;2022-09-09T11:56:12;1.65;;;0.90;;
72325;SDS011;60278;47.980;18.780;2022-09-09T11:59:49;1.83;;;1.00;;
72325;SDS011;60278;47.980;18.780;2022-09-09T12:11:00;1.70;;;0.85;;
72325;SDS011;60278;47.980;18.780;2022-09-09T12:14:36;2.10;;;0.90;;
72325;SDS011;60278;47.980;18.780;2022-09-09T12:18:14;1.87;;;1.00;;
72325;SDS011;60278;47.980;18.780;2022-09-09T12:33:01;3.47;;;0.97;;
72325;SDS011;60278;47.980;18.780;2022-09-09T12:36:33;1.52;;;0.75;;
72325;SDS011;60278;47.980;18.780;2022-09-09T12:44:09;1.97;;;0.90;;
72325;SDS011;60278;47.980;18.780;2022-09-09T12:47:42;1.73;;;0.87;;
72325;SDS011;60278;47.980;18.780;2022-09-09T12:51:28;5.03;;;0.80;;
72325;SDS011;60278;47.980;18.780;2022-09-09T12:55:02;3.00;;;0.93;;
72325;SDS011;60278;47.980;18.780;2022-09-09T12:58:36;2.03;;;1.02;;
72325;SDS011;60278;47.980;18.780;2022-09-09T13:05:53;2.53;;;1.10;;
72325;SDS011;60278;47.980;18.780;2022-09-09T13:09:30;2.60;;;0.90;;
72325;SDS011;60278;47.980;18.780;2022-09-09T13:13:02;2.50;;;1.20;;
72325;SDS011;60278;47.980;18.780;2022-09-09T13:16:34;11.97;;;1.73;;
72325;SDS011;60278;47.980;18.780;2022-09-09T13:20:06;2.05;;;0.95;;
72325;SDS011;60278;47.980;18.780;2022-09-09T13:23:49;4.63;;;0.90;;
72325;SDS011;60278;47.980;18.780;2022-09-09T13:27:24;5.53;;;0.80;;
72325;SDS011;60278;47.980;18.780;2022-09-09T13:30:59;2.07;;;0.73;;
72325;SDS011;60278;47.980;18.780;2022-09-09T13:34:33;7.03;;;1.00;;
72325;SDS011;60278;47.980;18.780;2022-09-09T13:38:08;1.60;;;0.80;;
72325;SDS011;60278;47.980;18.780;2022-09-09T13:41:42;2.50;;;1.13;;
72325;SDS011;60278;47.980;18.780;2022-09-09T13:45:16;1.67;;;0.80;;
72325;SDS011;60278;47.980;18.780;2022-09-09T13:48:57;2.47;;;0.77;;
72325;SDS011;60278;47.980;18.780;2022-09-09T13:52:30;1.65;;;0.70;;
72325;SDS011;60278;47.980;18.780;2022-09-09T13:56:02;5.03;;;1.07;;
72325;SDS011;60278;47.980;18.780;2022-09-09T13:59:33;1.63;;;0.90;;
72325;SDS011;60278;47.980;18.780;2022-09-09T14:03:05;1.50;;;0.70;;
72325;SDS011;60278;47.980;18.780;2022-09-09T14:06:37;1.55;;;0.70;;
72325;SDS011;60278;47.980;18.780;2022-09-09T14:10:10;3.00;;;0.90;;
72325;SDS011;60278;47.980;18.780;2022-09-09T14:13:41;3.90;;;0.80;;
72325;SDS011;60278;47.980;18.780;2022-09-09T14:17:12;1.55;;;0.65;;
72325;SDS011;60278;47.980;18.780;2022-09-09T14:20:44;2.42;;;0.90;;
72325;SDS011;60278;47.980;18.780;2022-09-09T14:24:15;1.70;;;0.83;;
72325;SDS011;60278;47.980;18.780;2022-09-09T14:27:47;2.13;;;0.77;;
72325;SDS011;60278;47.980;18.780;2022-09-09T14:31:18;2.15;;;0.85;;
72325;SDS011;60278;47.980;18.780;2022-09-09T14:34:49;1.83;;;0.80;;
72325;SDS011;60278;47.980;18.780;2022-09-09T14:38:22;2.00;;;1.00;;
72325;SDS011;60278;47.980;18.780;2022-09-09T14:41:53;2.10;;;1.00;;
72325;SDS011;60278;47.980;18.780;2022-09-09T14:45:24;5.15;;;1.23;;
72325;SDS011;60278;47.980;18.780;2022-09-09T14:48:56;2.70;;;1.00;;
72325;SDS011;60278;47.980;18.780;2022-09-09T14:52:27;5.27;;;1.63;;
72325;SDS011;60278;47.980;18.780;2022-09-09T14:56:07;3.47;;;1.30;;
72325;SDS011;60278;47.980;18.780;2022-09-09T14:59:40;2.53;;;1.30;;
72325;SDS011;60278;47.980;18.780;2022-09-09T15:03:11;5.38;;;0.88;;
72325;SDS011;60278;47.980;18.780;2022-09-09T15:06:42;1.87;;;0.80;;
72325;SDS011;60278;47.980;18.780;2022-09-09T15:10:17;3.28;;;1.10;;
72325;SDS011;60278;47.980;18.780;2022-09-09T15:13:50;1.98;;;0.80;;
72325;SDS011;60278;47.980;18.780;2022-09-09T15:17:23;2.13;;;0.90;;
72325;SDS011;60278;47.980;18.780;2022-09-09T15:20:57;2.13;;;0.90;;
72325;SDS011;60278;47.980;18.780;2022-09-09T15:24:28;1.95;;;0.90;;
72325;SDS011;60278;47.980;18.780;2022-09-09T15:27:59;2.17;;;0.73;;
72325;SDS011;60278;47.980;18.780;2022-09-09T15:31:31;1.67;;;0.83;;
72325;SDS011;60278;47.980;18.780;2022-09-09T15:35:02;3.27;;;0.73;;
72325;SDS011;60278;47.980;18.780;2022-09-09T15:38:33;1.55;;;0.80;;
72325;SDS011;60278;47.980;18.780;2022-09-09T15:42:04;2.00;;;0.95;;
72325;SDS011;60278;47.980;18.780;2022-09-09T15:45:37;1.37;;;0.70;;
72325;SDS011;60278;47.980;18.780;2022-09-09T15:49:09;1.70;;;0.70;;
72325;SDS011;60278;47.980;18.780;2022-09-09T15:52:52;2.28;;;0.70;;
72325;SDS011;60278;47.980;18.780;2022-09-09T15:56:24;2.20;;;0.90;;
72325;SDS011;60278;47.980;18.780;2022-09-09T15:59:57;1.43;;;0.80;;
72325;SDS011;60278;47.980;18.780;2022-09-09T16:03:33;1.83;;;0.70;;
72325;SDS011;60278;47.980;18.780;2022-09-09T16:07:08;2.28;;;0.88;;
72325;SDS011;60278;47.980;18.780;2022-09-09T16:10:39;3.35;;;0.80;;
72325;SDS011;60278;47.980;18.780;2022-09-09T16:14:10;1.90;;;1.00;;
72325;SDS011;60278;47.980;18.780;2022-09-09T16:17:41;2.85;;;1.23;;
72325;SDS011;60278;47.980;18.780;2022-09-09T16:21:17;1.92;;;0.90;;
72325;SDS011;60278;47.980;18.780;2022-09-09T16:25:01;3.83;;;1.00;;
72325;SDS011;60278;47.980;18.780;2022-09-09T16:28:33;1.88;;;0.90;;
72325;SDS011;60278;47.980;18.780;2022-09-09T16:32:04;2.15;;;1.00;;
72325;SDS011;60278;47.980;18.780;2022-09-09T16:35:38;2.08;;;1.05;;
72325;SDS011;60278;47.980;18.780;2022-09-09T16:39:11;3.13;;;1.10;;
72325;SDS011;60278;47.980;18.780;2022-09-09T16:42:43;2.17;;;1.10;;
72325;SDS011;60278;47.980;18.780;2022-09-09T16:46:15;2.00;;;0.98;;
72325;SDS011;60278;47.980;18.780;2022-09-09T16:49:48;4.17;;;1.20;;
72325;SDS011;60278;47.980;18.780;2022-09-09T16:53:19;3.30;;;1.40;;
72325;SDS011;60278;47.980;18.780;2022-09-09T16:56:50;17.63;;;5.70;;
72325;SDS011;60278;47.980;18.780;2022-09-09T17:00:21;36.30;;;12.67;;
72325;SDS011;60278;47.980;18.780;2022-09-09T17:03:54;32.70;;;11.70;;
72325;SDS011;60278;47.980;18.780;2022-09-09T17:07:26;27.90;;;8.68;;
72325;SDS011;60278;47.980;18.780;2022-09-09T17:10:58;24.10;;;8.00;;
72325;SDS011;60278;47.980;18.780;2022-09-09T17:14:29;12.80;;;4.70;;
72325;SDS011;60278;47.980;18.780;2022-09-09T17:18:01;3.70;;;1.42;;
72325;SDS011;60278;47.980;18.780;2022-09-09T17:21:32;5.78;;;1.90;;
72325;SDS011;60278;47.980;18.780;2022-09-09T17:25:03;5.65;;;2.85;;
72325;SDS011;60278;47.980;18.780;2022-09-09T17:28:36;30.50;;;14.83;;
72325;SDS011;60278;47.980;18.780;2022-09-09T17:32:09;12.30;;;6.20;;
72325;SDS011;60278;47.980;18.780;2022-09-09T17:35:43;5.78;;;2.45;;
72325;SDS011;60278;47.980;18.780;2022-09-09T17:39:15;4.97;;;1.70;;
72325;SDS011;60278;47.980;18.780;2022-09-09T17:42:46;6.10;;;2.60;;
72325;SDS011;60278;47.980;18.780;2022-09-09T17:46:18;3.83;;;1.83;;
72325;SDS011;60278;47.980;18.780;2022-09-09T17:49:54;6.45;;;2.05;;
72325;SDS011;60278;47.980;18.780;2022-09-09T17:53:25;12.23;;;4.57;;
72325;SDS011;60278;47.980;18.780;2022-09-09T17:56:56;8.73;;;3.58;;
72325;SDS011;60278;47.980;18.780;2022-09-09T18:00:28;18.52;;;10.75;;
72325;SDS011;60278;47.980;18.780;2022-09-09T18:04:02;24.80;;;13.27;;
72325;SDS011;60278;47.980;18.780;2022-09-09T18:07:34;16.07;;;7.63;;
72325;SDS011;60278;47.980;18.780;2022-09-09T18:11:05;2.97;;;1.50;;
72325;SDS011;60278;47.980;18.780;2022-09-09T18:14:37;3.25;;;1.35;;
72325;SDS011;60278;47.980;18.780;2022-09-09T18:18:08;3.90;;;2.00;;
72325;SDS011;60278;47.980;18.780;2022-09-09T18:21:40;6.00;;;1.63;;
72325;SDS011;60278;47.980;18.780;2022-09-09T18:25:11;6.15;;;3.08;;
72325;SDS011;60278;47.980;18.780;2022-09-09T18:28:43;4.73;;;2.60;;
72325;SDS011;60278;47.980;18.780;2022-09-09T18:32:18;5.05;;;2.40;;
72325;SDS011;60278;47.980;18.780;2022-09-09T18:35:49;3.38;;;1.60;;
72325;SDS011;60278;47.980;18.780;2022-09-09T18:39:21;3.13;;;1.60;;
72325;SDS011;60278;47.980;18.780;2022-09-09T18:42:54;4.20;;;1.60;;
72325;SDS011;60278;47.980;18.780;2022-09-09T18:46:28;2.90;;;1.38;;
72325;SDS011;60278;47.980;18.780;2022-09-09T18:50:02;2.92;;;1.40;;
72325;SDS011;60278;47.980;18.780;2022-09-09T18:53:34;4.23;;;2.10;;
72325;SDS011;60278;47.980;18.780;2022-09-09T18:57:06;4.95;;;2.17;;
72325;SDS011;60278;47.980;18.780;2022-09-09T19:00:37;3.80;;;1.80;;
72325;SDS011;60278;47.980;18.780;2022-09-09T19:04:08;4.05;;;1.90;;
72325;SDS011;60278;47.980;18.780;2022-09-09T19:07:39;4.53;;;2.00;;
72325;SDS011;60278;47.980;18.780;2022-09-09T19:11:12;3.35;;;1.60;;
72325;SDS011;60278;47.980;18.780;2022-09-09T19:14:48;3.10;;;1.40;;
72325;SDS011;60278;47.980;18.780;2022-09-09T19:18:20;3.70;;;1.60;;
72325;SDS011;60278;47.980;18.780;2022-09-09T19:21:51;3.97;;;1.98;;
72325;SDS011;60278;47.980;18.780;2022-09-09T19:25:22;3.53;;;1.50;;
72325;SDS011;60278;47.980;18.780;2022-09-09T19:28:54;5.07;;;1.87;;
72325;SDS011;60278;47.980;18.780;2022-09-09T19:32:30;3.65;;;1.85;;
72325;SDS011;60278;47.980;18.780;2022-09-09T19:36:02;6.55;;;2.10;;
72325;SDS011;60278;47.980;18.780;2022-09-09T19:39:36;6.53;;;1.98;;
72325;SDS011;60278;47.980;18.780;2022-09-09T19:43:07;3.90;;;1.80;;
72325;SDS011;60278;47.980;18.780;2022-09-09T19:46:39;3.53;;;1.90;;
72325;SDS011;60278;47.980;18.780;2022-09-09T19:50:12;3.30;;;1.60;;
72325;SDS011;60278;47.980;18.780;2022-09-09T19:53:44;2.93;;;1.67;;
72325;SDS011;60278;47.980;18.780;2022-09-09T19:57:18;3.33;;;1.90;;
72325;SDS011;60278;47.980;18.780;2022-09-09T20:00:49;4.63;;;1.83;;
72325;SDS011;60278;47.980;18.780;2022-09-09T20:04:21;3.40;;;1.60;;
72325;SDS011;60278;47.980;18.780;2022-09-09T20:07:52;3.83;;;1.80;;
72325;SDS011;60278;47.980;18.780;2022-09-09T20:11:23;4.93;;;1.52;;
72325;SDS011;60278;47.980;18.780;2022-09-09T20:14:55;3.53;;;1.73;;
72325;SDS011;60278;47.980;18.780;2022-09-09T20:18:27;2.73;;;1.57;;
72325;SDS011;60278;47.980;18.780;2022-09-09T20:22:01;3.13;;;1.67;;
72325;SDS011;60278;47.980;18.780;2022-09-09T20:25:34;7.25;;;1.77;;
72325;SDS011;60278;47.980;18.780;2022-09-09T20:29:07;4.87;;;2.13;;
72325;SDS011;60278;47.980;18.780;2022-09-09T20:32:41;2.95;;;1.70;;
72325;SDS011;60278;47.980;18.780;2022-09-09T20:36:13;3.55;;;1.55;;
72325;SDS011;60278;47.980;18.780;2022-09-09T20:39:44;3.33;;;1.70;;
72325;SDS011;60278;47.980;18.780;2022-09-09T20:43:15;2.67;;;1.43;;
72325;SDS011;60278;47.980;18.780;2022-09-09T20:46:48;2.92;;;1.50;;
72325;SDS011;60278;47.980;18.780;2022-09-09T20:50:22;4.65;;;1.70;;
72325;SDS011;60278;47.980;18.780;2022-09-09T20:53:57;3.20;;;1.40;;
72325;SDS011;60278;47.980;18.780;2022-09-09T20:57:29;5.57;;;1.58;;
72325;SDS011;60278;47.980;18.780;2022-09-09T21:01:01;3.00;;;1.48;;
72325;SDS011;60278;47.980;18.780;2022-09-09T21:04:33;2.73;;;1.47;;
72325;SDS011;60278;47.980;18.780;2022-09-09T21:08:05;3.65;;;1.70;;
72325;SDS011;60278;47.980;18.780;2022-09-09T21:11:36;4.75;;;1.85;;
72325;SDS011;60278;47.980;18.780;2022-09-09T21:15:08;4.65;;;1.65;;
72325;SDS011;60278;47.980;18.780;2022-09-09T21:18:40;2.80;;;1.57;;
72325;SDS011;60278;47.980;18.780;2022-09-09T21:22:13;7.88;;;1.90;;
72325;SDS011;60278;47.980;18.780;2022-09-09T21:25:44;3.95;;;1.80;;
72325;SDS011;60278;47.980;18.780;2022-09-09T21:29:16;5.57;;;1.77;;
72325;SDS011;60278;47.980;18.780;2022-09-09T21:32:48;3.58;;;1.60;;
72325;SDS011;60278;47.980;18.780;2022-09-09T21:36:19;6.82;;;1.80;;
72325;SDS011;60278;47.980;18.780;2022-09-09T21:39:50;6.87;;;1.70;;
72325;SDS011;60278;47.980;18.780;2022-09-09T21:43:21;6.68;;;1.90;;
72325;SDS011;60278;47.980;18.780;2022-09-09T21:46:53;3.55;;;1.83;;
72325;SDS011;60278;47.980;18.780;2022-09-09T21:50:24;4.38;;;2.20;;
72325;SDS011;60278;47.980;18.780;2022-09-09T21:53:55;4.23;;;1.80;;
72325;SDS011;60278;47.980;18.780;2022-09-09T21:57:26;5.15;;;1.48;;
72325;SDS011;60278;47.980;18.780;2022-09-09T22:00:57;4.97;;;1.42;;
72325;SDS011;60278;47.980;18.780;2022-09-09T22:04:28;3.03;;;1.73;;
72325;SDS011;60278;47.980;18.780;2022-09-09T22:07:59;4.40;;;1.58;;
72325;SDS011;60278;47.980;18.780;2022-09-09T22:11:30;2.63;;;1.60;;
72325;SDS011;60278;47.980;18.780;2022-09-09T22:15:01;6.80;;;1.80;;
72325;SDS011;60278;47.980;18.780;2022-09-09T22:18:33;2.90;;;1.63;;
72325;SDS011;60278;47.980;18.780;2022-09-09T22:22:04;3.42;;;1.85;;
72325;SDS011;60278;47.980;18.780;2022-09-09T22:25:36;5.53;;;1.55;;
72325;SDS011;60278;47.980;18.780;2022-09-09T22:29:08;3.17;;;1.60;;
72325;SDS011;60278;47.980;18.780;2022-09-09T22:32:39;2.78;;;1.67;;
72325;SDS011;60278;47.980;18.780;2022-09-09T22:36:10;3.38;;;1.73;;
72325;SDS011;60278;47.980;18.780;2022-09-09T22:39:42;5.07;;;1.80;;
72325;SDS011;60278;47.980;18.780;2022-09-09T22:43:14;5.18;;;2.13;;
72325;SDS011;60278;47.980;18.780;2022-09-09T22:46:48;7.25;;;2.63;;
72325;SDS011;60278;47.980;18.780;2022-09-09T22:50:20;8.03;;;2.37;;
72325;SDS011;60278;47.980;18.780;2022-09-09T22:53:51;4.35;;;2.63;;
72325;SDS011;60278;47.980;18.780;2022-09-09T22:57:22;4.82;;;2.40;;
72325;SDS011;60278;47.980;18.780;2022-09-09T23:00:53;6.45;;;2.40;;
72325;SDS011;60278;47.980;18.780;2022-09-09T23:04:28;5.87;;;2.10;;
72325;SDS011;60278;47.980;18.780;2022-09-09T23:08:00;3.92;;;2.00;;
72325;SDS011;60278;47.980;18.780;2022-09-09T23:11:32;3.30;;;1.80;;
72325;SDS011;60278;47.980;18.780;2022-09-09T23:15:06;4.03;;;1.97;;